Time;durP1;ratioP1;P1;durP2;ratioP2;P2;SDS_P1;SDS_P2;PMS_P1;PMS_P2;Temp;Humidity;BMP_temperature;BMP_pressure;BME280_temperature;BME280_humidity;BME280_pressure;Samples;Min_cycle;Max_cycle;Signal;HPM_P1;HPM_P2
2022/12/06 00:01:40;;;;;;;13.48;6.97;;;;;;;7.13;68.98;95231.94;4176485;28;20079;-54
2022/12/06 00:03:44;;;;;;;11.57;6.68;;;;;;;7.14;68.55;95237.97;4171125;28;20548;-54
2022/12/06 00:05:45;;;;;;;13.15;7.30;;;;;;;7.11;68.84;95230.41;4152449;28;20050;-54
2022/12/06 00:07:48;;;;;;;10.65;6.90;;;;;;;7.08;68.95;95230.69;4175071;28;20156;-55
2022/12/06 00:09:50;;;;;;;10.13;7.47;;;;;;;7.05;69.14;95230.91;4170721;28;20602;-58
2022/12/06 00:11:53;;;;;;;9.18;5.97;;;;;;;7.05;69.04;95230.91;4160595;28;20398;-56
2022/12/06 00:13:56;;;;;;;10.68;7.00;;;;;;;7.07;69.10;95229.00;4177596;28;20056;-55
2022/12/06 00:16:02;;;;;;;11.15;7.57;;;;;;;7.09;69.10;95232.31;4177646;28;20053;-54
2022/12/06 00:18:04;;;;;;;10.77;7.13;;;;;;;7.13;68.99;95233.72;4177745;28;20053;-55
2022/12/06 00:20:07;;;;;;;12.23;7.57;;;;;;;7.12;68.93;95235.50;4167800;28;20077;-52
2022/12/06 00:22:08;;;;;;;11.68;7.20;;;;;;;7.11;68.90;95233.03;4161695;28;20119;-54
2022/12/06 00:24:12;;;;;;;10.02;6.43;;;;;;;7.09;68.54;95233.13;4164268;28;20046;-55
2022/12/06 00:26:14;;;;;;;13.50;6.25;;;;;;;7.08;68.44;95233.28;4177040;28;20695;-57
2022/12/06 00:28:16;;;;;;;9.90;6.05;;;;;;;7.09;68.75;95229.72;4177015;28;20052;-57
2022/12/06 00:30:17;;;;;;;10.30;6.43;;;;;;;7.03;68.02;95225.81;4159168;28;20050;-58
2022/12/06 00:32:19;;;;;;;11.40;6.95;;;;;;;7.05;68.57;95233.50;4170285;28;20080;-54
2022/12/06 00:34:21;;;;;;;8.70;6.18;;;;;;;7.06;68.36;95238.59;4177714;28;20475;-59
2022/12/06 00:36:25;;;;;;;10.07;7.38;;;;;;;7.03;67.98;95240.63;4171732;28;20644;-56
2022/12/06 00:38:27;;;;;;;;;;;;;;;6.99;68.70;95237.47;4153989;28;20062;-56
2022/12/06 00:40:28;;;;;;;11.40;6.65;;;;;;;6.96;68.81;95235.09;4171782;28;20079;-57
2022/12/06 00:42:31;;;;;;;10.50;6.60;;;;;;;6.97;68.78;95232.38;4177799;28;20049;-51
2022/12/06 00:44:32;;;;;;;10.10;6.32;;;;;;;7.01;68.27;95232.09;4177498;28;20060;-54
2022/12/06 00:46:34;;;;;;;10.30;6.55;;;;;;;7.05;68.45;95230.91;4176721;28;20087;-53
2022/12/06 00:48:36;;;;;;;12.45;6.93;;;;;;;7.05;68.59;95225.69;4177444;28;20056;-56
2022/12/06 00:50:38;;;;;;;13.73;7.22;;;;;;;7.05;68.39;95225.69;4177588;28;20103;-53
2022/12/06 00:52:40;;;;;;;11.95;6.57;;;;;;;7.07;68.12;95226.41;4169796;28;20539;-53
2022/12/06 00:54:41;;;;;;;9.38;6.28;;;;;;;7.09;68.33;95224.50;4177490;28;20527;-56
2022/12/06 00:56:43;;;;;;;10.07;6.22;;;;;;;7.09;68.44;95217.50;4162205;28;20480;-54
2022/12/06 00:58:45;;;;;;;10.05;6.43;;;;;;;7.08;68.11;95215.88;4166032;28;20453;-55
2022/12/06 01:00:47;;;;;;;15.35;7.72;;;;;;;7.08;68.10;95217.66;4176937;28;20132;-52
2022/12/06 01:02:48;;;;;;;15.57;7.47;;;;;;;7.08;68.33;95210.66;4164771;28;20444;-53
2022/12/06 01:04:50;;;;;;;10.90;6.82;;;;;;;7.10;68.27;95218.34;4160987;28;20049;-55
2022/12/06 01:06:52;;;;;;;12.73;7.05;;;;;;;7.11;68.08;95212.19;4161143;28;20111;-53
2022/12/06 01:08:59;;;;;;;10.98;7.30;;;;;;;7.15;68.20;95211.78;4147759;28;20060;-54
2022/12/06 01:11:01;;;;;;;9.23;6.55;;;;;;;7.16;67.99;95210.84;4152602;28;20066;-55
2022/12/06 01:13:04;;;;;;;11.57;6.78;;;;;;;7.21;68.46;95202.66;4176248;28;20136;-53
2022/12/06 01:15:06;;;;;;;14.65;7.53;;;;;;;7.18;67.93;95206.34;4165812;28;20068;-53
2022/12/06 01:17:08;;;;;;;11.13;7.15;;;;;;;7.14;68.09;95201.50;4174430;28;20396;-51
2022/12/06 01:19:11;;;;;;;11.70;6.97;;;;;;;7.10;67.90;95202.72;4177017;28;20133;-52
2022/12/06 01:21:17;;;;;;;11.30;6.77;;;;;;;7.04;68.26;95200.63;4177054;28;20076;-55
2022/12/06 01:23:19;;;;;;;11.40;6.05;;;;;;;6.93;68.11;95202.31;4172311;28;20077;-53
2022/12/06 01:25:20;;;;;;;9.98;6.70;;;;;;;6.87;68.79;95199.38;4169119;28;20171;-56
2022/12/06 01:27:26;;;;;;;12.10;6.82;;;;;;;6.91;68.77;95193.78;4163412;28;20140;-58
2022/12/06 01:29:28;;;;;;;10.45;7.00;;;;;;;6.83;68.41;95196.19;4162175;28;20393;-55
2022/12/06 01:31:29;;;;;;;11.60;6.72;;;;;;;6.76;68.75;95198.44;4176509;28;20048;-54
2022/12/06 01:33:39;;;;;;;13.10;6.68;;;;;;;6.78;68.72;95194.91;4176882;28;20049;-56
2022/12/06 01:35:41;;;;;;;9.50;6.05;;;;;;;6.72;68.80;95184.03;4176505;28;20106;-56
2022/12/06 01:37:43;;;;;;;11.88;6.45;;;;;;;6.70;68.83;95185.91;4170627;28;20640;-55
2022/12/06 01:39:45;;;;;;;9.20;6.45;;;;;;;6.72;69.21;95191.00;4159538;28;20107;-56
2022/12/06 01:41:46;;;;;;;10.40;6.22;;;;;;;6.79;69.28;95186.97;4165848;28;20110;-56
2022/12/06 01:43:49;;;;;;;11.20;6.72;;;;;;;6.85;69.22;95180.44;4173716;28;20072;-55
2022/12/06 01:45:51;;;;;;;10.25;6.72;;;;;;;6.88;68.66;95183.63;4176251;28;20072;-53
2022/12/06 01:47:53;;;;;;;10.45;6.35;;;;;;;6.93;68.68;95176.25;4166495;28;20103;-54
2022/12/06 01:50:06;;;;;;;9.95;6.40;;;;;;;7.01;68.48;95186.03;4172623;28;20448;-52
2022/12/06 01:52:10;;;;;;;9.60;5.97;;;;;;;7.04;68.14;95185.81;4144987;28;20260;-55
2022/12/06 01:54:14;;;;;;;9.75;5.90;;;;;;;7.10;68.19;95184.47;4150133;28;20138;-55
2022/12/06 01:56:15;;;;;;;;;;;;;;;7.12;68.33;95187.75;4170984;28;20091;-55
2022/12/06 01:58:27;;;;;;;11.00;6.28;;;;;;;7.13;68.22;95181.63;4173582;28;19928;-56
2022/12/06 02:00:29;;;;;;;10.60;6.20;;;;;;;7.13;68.31;95181.63;4165115;28;20457;-56
2022/12/06 02:02:30;;;;;;;9.88;6.40;;;;;;;7.15;67.81;95179.72;4166581;28;20652;-52
2022/12/06 02:04:32;;;;;;;10.40;6.70;;;;;;;7.16;67.95;95170.94;4158919;28;20103;-56
2022/12/06 02:06:34;;;;;;;19.67;8.52;;;;;;;7.20;67.60;95174.13;4158996;28;20182;-56
2022/12/06 02:08:36;;;;;;;16.35;7.40;;;;;;;7.19;67.56;95173.28;4160401;28;20087;-55
2022/12/06 02:10:38;;;;;;;18.08;7.57;;;;;;;7.09;67.66;95170.59;4145421;28;20080;-56
2022/12/06 02:12:40;;;;;;;29.02;10.07;;;;;;;6.99;67.78;95169.72;4157832;28;20045;-53
2022/12/06 02:14:45;;;;;;;38.08;14.98;;;;;;;6.97;68.04;95169.03;4151543;28;20514;-55
2022/12/06 02:16:50;;;;;;;41.08;13.80;;;;;;;6.96;68.53;95162.16;4142413;28;20050;-57
2022/12/06 02:19:04;;;;;;;17.27;9.25;;;;;;;6.93;68.03;95165.84;4155635;28;20474;-55
2022/12/06 02:21:05;;;;;;;16.02;7.97;;;;;;;6.86;68.57;95158.63;4150555;28;20431;-53
2022/12/06 02:23:22;;;;;;;19.63;9.25;;;;;;;6.66;69.13;95157.66;4159090;28;20057;-55
2022/12/06 02:25:48;;;;;;;13.23;7.82;;;;;;;6.41;69.82;95154.44;4161005;28;20087;-56
2022/12/06 02:28:27;;;;;;;10.55;6.72;;;;;;;6.23;70.25;95150.69;4173507;28;20083;-60
2022/12/06 02:30:35;;;;;;;10.07;6.32;;;;;;;6.12;70.71;95162.75;4176177;28;20077;-54
2022/12/06 02:33:05;;;;;;;12.00;6.32;;;;;;;6.19;70.88;95160.50;4158999;28;20046;-53
2022/12/06 02:35:11;;;;;;;11.52;6.55;;;;;;;6.27;71.17;95158.13;4167360;28;20077;-57
2022/12/06 02:37:19;;;;;;;13.63;6.80;;;;;;;6.35;70.50;95147.13;4176446;28;20386;-57
2022/12/06 02:39:44;;;;;;;15.48;7.68;;;;;;;6.46;70.49;95152.28;4151502;28;20048;-55
2022/12/06 02:41:50;;;;;;;;;;;;;;;6.56;69.86;95147.19;4175797;28;20067;-56
2022/12/06 02:43:55;;;;;;;11.13;6.40;;;;;;;6.63;69.80;95145.72;4157066;28;19964;-57
2022/12/06 02:45:59;;;;;;;10.85;6.63;;;;;;;6.70;69.58;95143.44;4160022;28;20052;-53
2022/12/06 02:48:02;;;;;;;13.70;7.07;;;;;;;6.73;69.35;95137.97;4162153;28;20091;-54
2022/12/06 02:50:09;;;;;;;10.90;6.72;;;;;;;6.80;69.87;95138.31;4145728;28;20057;-57
2022/12/06 02:52:12;;;;;;;9.98;5.95;;;;;;;6.87;69.57;95139.47;4151616;28;20073;-52
2022/12/06 02:54:30;;;;;;;14.37;6.80;;;;;;;6.93;68.57;95138.97;4158507;28;20210;-55
2022/12/06 02:56:32;;;;;;;10.40;5.80;;;;;;;6.95;68.58;95139.69;4150699;28;20053;-55
2022/12/06 02:58:36;;;;;;;10.60;6.18;;;;;;;7.01;68.35;95138.31;4171106;28;20041;-55
2022/12/06 03:00:40;;;;;;;9.32;5.78;;;;;;;7.03;68.58;95144.25;4151126;28;20419;-52
2022/12/06 03:02:42;;;;;;;8.43;5.22;;;;;;;7.03;68.34;95136.41;4169965;28;20084;-54
2022/12/06 03:05:00;;;;;;;10.88;5.72;;;;;;;7.03;68.26;95137.25;4143973;28;20145;-55
2022/12/06 03:07:14;;;;;;;8.73;5.78;;;;;;;7.05;68.56;95142.34;4146870;28;20053;-51
2022/12/06 03:09:32;;;;;;;12.30;6.10;;;;;;;7.07;68.29;95137.81;4143816;28;20504;-56
2022/12/06 03:12:06;;;;;;;12.25;6.18;;;;;;;7.10;67.94;95146.22;4155025;28;20064;-56
2022/12/06 03:14:13;;;;;;;7.65;4.95;;;;;;;7.14;67.68;95141.56;4135428;28;20100;-57
2022/12/06 03:16:26;;;;;;;12.15;5.60;;;;;;;7.12;67.87;95143.47;4157545;28;20095;-54
2022/12/06 03:18:42;;;;;;;8.70;5.78;;;;;;;7.07;68.30;95140.44;4164765;28;20362;-52
2022/12/06 03:20:56;;;;;;;9.23;6.22;;;;;;;7.04;68.07;95136.31;4161416;28;20055;-53
2022/12/06 03:23:04;;;;;;;9.55;6.50;;;;;;;7.05;68.31;95137.13;4152941;28;20058;-55
2022/12/06 03:25:07;;;;;;;13.40;6.70;;;;;;;7.08;68.22;95136.88;4157053;28;20054;-55
2022/12/06 03:27:13;;;;;;;9.25;6.57;;;;;;;7.11;68.13;95136.63;4147101;28;20057;-53
2022/12/06 03:29:17;;;;;;;9.68;6.15;;;;;;;7.13;67.84;95132.94;4154337;28;20057;-55
2022/12/06 03:31:21;;;;;;;11.23;5.65;;;;;;;7.12;67.88;95127.84;4145381;28;20053;-56
2022/12/06 03:33:25;;;;;;;8.70;5.65;;;;;;;7.15;67.66;95135.41;4146992;28;20149;-54
2022/12/06 03:35:30;;;;;;;9.75;6.00;;;;;;;7.17;68.05;95129.13;4150138;28;20124;-55
2022/12/06 03:37:32;;;;;;;8.20;5.32;;;;;;;7.18;67.56;95122.97;4161498;28;20050;-56
2022/12/06 03:39:40;;;;;;;9.25;5.82;;;;;;;7.17;67.57;95128.31;4146125;28;20406;-56
2022/12/06 03:41:49;;;;;;;12.00;6.45;;;;;;;7.14;67.55;95118.97;4145470;28;20096;-58
2022/12/06 03:43:51;;;;;;;10.43;6.00;;;;;;;7.10;67.85;95127.16;4144728;28;20109;-55
2022/12/06 03:46:13;;;;;;;8.75;6.28;;;;;;;7.06;68.00;95128.38;4146998;28;20050;-51
2022/12/06 03:48:23;;;;;;;10.27;6.57;;;;;;;7.04;68.11;95118.06;4145789;28;20129;-52
2022/12/06 03:50:31;;;;;;;11.88;6.05;;;;;;;7.07;68.21;95122.19;4154359;28;20060;-54
2022/12/06 03:52:33;;;;;;;8.75;5.68;;;;;;;7.11;67.71;95126.19;4171584;28;20048;-54
2022/12/06 03:54:40;;;;;;;9.88;6.53;;;;;;;7.12;67.93;95120.88;4154127;28;20081;-54
2022/12/06 03:56:42;;;;;;;15.10;8.23;;;;;;;7.16;68.13;95118.81;4150859;28;20080;-56
2022/12/06 03:58:44;;;;;;;14.32;7.43;;;;;;;7.17;68.01;95110.88;4153207;28;20137;-56
2022/12/06 04:00:46;;;;;;;11.20;7.32;;;;;;;7.22;68.25;95113.09;4145346;28;20054;-55
2022/12/06 04:02:48;;;;;;;12.40;6.97;;;;;;;7.20;67.55;95107.19;4145217;28;20054;-53
2022/12/06 04:04:49;;;;;;;10.15;7.00;;;;;;;7.24;67.44;95110.38;4163587;28;20045;-55
2022/12/06 04:06:51;;;;;;;12.23;6.35;;;;;;;7.20;67.74;95108.97;4178180;28;20593;-52
2022/12/06 04:09:50;;;;;;;10.43;5.85;;;;;;;7.17;67.81;95110.06;4174622;28;20084;-56
2022/12/06 04:11:15;;;;;;;12.60;6.40;;;;;;;7.22;68.14;95113.09;4168206;28;20058;-56
2022/12/06 04:13:17;;;;;;;9.90;6.35;;;;;;;7.10;67.55;95117.56;4177268;28;20107;-54
2022/12/06 04:15:22;;;;;;;10.57;6.75;;;;;;;7.01;68.02;95114.88;4177626;28;20071;-52
2022/12/06 04:19:44;;;;;;;11.27;6.97;;;;;;;6.97;68.55;95112.53;4173367;28;20391;-50
2022/12/06 04:24:12;;;;;;;13.63;6.18;;;;;;;7.03;68.29;95118.19;4152116;28;20053;-53
2022/12/06 04:26:18;;;;;;;11.82;7.30;;;;;;;7.03;68.87;95120.78;4177196;28;20045;-57
2022/12/06 04:40:01;;;;;;;11.75;7.30;;;;;;;6.79;69.71;95124.47;4158827;28;20054;-55
2022/12/06 04:44:23;;;;;;;29.55;16.88;;;;;;;6.81;69.75;95112.16;4175635;28;20064;-55
2022/12/06 04:46:25;;;;;;;29.13;17.52;;;;;;;6.66;71.07;95121.22;4175215;28;20056;-53
2022/12/06 04:48:27;;;;;;;30.02;17.17;;;;;;;6.57;71.80;95115.78;4176474;28;20132;-52
2022/12/06 04:50:28;;;;;;;33.15;18.40;;;;;;;6.62;71.95;95125.84;4168734;28;20049;-55
2022/12/06 04:52:30;;;;;;;30.00;18.10;;;;;;;6.63;72.03;95116.25;4171790;28;20123;-53
2022/12/06 04:54:37;;;;;;;33.53;19.50;;;;;;;6.50;72.05;95119.84;4158356;28;20543;-56
2022/12/06 04:56:38;;;;;;;30.13;17.42;;;;;;;6.11;73.86;95121.28;4151316;28;20515;-57
2022/12/06 04:58:40;;;;;;;31.95;17.73;;;;;;;5.98;74.48;95121.41;4163994;28;20368;-58
2022/12/06 05:00:42;;;;;;;35.03;17.27;;;;;;;5.97;74.69;95118.94;4162790;28;20676;-57
2022/12/06 05:02:44;;;;;;;30.67;18.25;;;;;;;6.08;74.90;95127.53;4161503;28;20123;-55
2022/12/06 05:04:46;;;;;;;30.08;18.60;;;;;;;6.22;74.66;95123.84;4162000;28;20045;-54
2022/12/06 05:06:47;;;;;;;29.25;18.65;;;;;;;6.34;74.42;95119.41;4166695;28;20662;-54
2022/12/06 05:08:49;;;;;;;34.72;20.50;;;;;;;6.45;73.57;95113.34;4174671;28;20041;-54
2022/12/06 05:10:51;;;;;;;31.77;18.38;;;;;;;6.59;73.17;95120.06;4157468;28;20136;-56
2022/12/06 05:12:52;;;;;;;26.80;16.08;;;;;;;6.68;72.37;95114.91;4172279;28;20079;-55
2022/12/06 05:14:54;;;;;;;24.35;13.60;;;;;;;6.74;72.17;95114.44;4171498;28;20099;-55
2022/12/06 05:16:57;;;;;;;21.13;12.25;;;;;;;6.78;72.05;95112.41;4171369;28;20520;-53
2022/12/06 05:18:59;;;;;;;18.35;10.40;;;;;;;6.84;71.37;95117.13;4168189;28;20049;-54
2022/12/06 05:21:13;;;;;;;13.85;8.18;;;;;;;6.88;71.20;95115.91;4154209;28;20093;-55
2022/12/06 05:23:15;;;;;;;12.05;7.70;;;;;;;6.91;70.89;95115.66;4173467;28;20482;-57
2022/12/06 05:25:17;;;;;;;13.57;7.38;;;;;;;6.94;70.24;95118.00;4171386;28;20596;-51
2022/12/06 05:27:18;;;;;;;12.05;7.70;;;;;;;6.93;69.92;95110.31;4167153;28;20076;-55
2022/12/06 05:29:20;;;;;;;13.25;7.18;;;;;;;6.93;69.69;95113.75;4163092;28;20076;-53
2022/12/06 05:31:23;;;;;;;14.07;8.77;;;;;;;6.92;69.77;95112.06;4174354;28;20049;-55
2022/12/06 05:33:25;;;;;;;13.43;8.55;;;;;;;6.96;69.97;95123.91;4167477;28;20515;-56
2022/12/06 05:35:27;;;;;;;15.13;8.18;;;;;;;7.01;69.99;95117.50;4171719;28;20049;-58
2022/12/06 05:37:29;;;;;;;14.38;7.25;;;;;;;7.04;69.20;95123.28;4166772;28;20049;-56
2022/12/06 05:39:30;;;;;;;12.35;7.78;;;;;;;6.98;69.16;95119.38;4164143;28;20203;-58
2022/12/06 05:41:32;;;;;;;12.20;7.30;;;;;;;6.95;69.23;95116.22;4166666;28;20710;-56
2022/12/06 05:43:34;;;;;;;11.48;6.78;;;;;;;6.92;69.26;95125.09;4170714;28;20112;-54
2022/12/06 05:45:36;;;;;;;14.27;7.28;;;;;;;6.92;69.34;95114.69;4172668;28;20053;-55
2022/12/06 05:47:38;;;;;;;12.65;7.07;;;;;;;6.92;69.44;95108.66;4173424;28;20049;-53
2022/12/06 05:49:40;;;;;;;14.85;6.75;;;;;;;6.94;69.16;95104.97;4158565;28;20128;-58
2022/12/06 05:51:43;;;;;;;10.60;6.18;;;;;;;6.96;69.37;95107.44;4168890;28;20046;-57
2022/12/06 05:53:44;;;;;;;11.73;6.82;;;;;;;7.00;69.08;95106.25;4165239;28;20144;-55
2022/12/06 05:55:46;;;;;;;16.08;7.20;;;;;;;7.04;69.10;95099.00;4162557;28;20085;-57
2022/12/06 05:57:48;;;;;;;13.98;7.90;;;;;;;7.05;68.91;95096.25;4154390;28;20072;-56
2022/12/06 05:59:50;;;;;;;16.42;7.75;;;;;;;7.11;68.73;95100.16;4156253;28;20387;-55
2022/12/06 06:01:52;;;;;;;10.55;6.93;;;;;;;7.13;68.74;95104.28;4144076;28;20121;-56
2022/12/06 06:03:54;;;;;;;13.38;7.32;;;;;;;7.15;68.53;95101.53;4152241;28;20160;-53
2022/12/06 06:05:58;;;;;;;11.95;6.65;;;;;;;7.21;68.40;95100.22;4149924;28;20449;-55
2022/12/06 06:08:00;;;;;;;11.85;7.78;;;;;;;7.18;68.10;95099.53;4146933;28;20054;-56
2022/12/06 06:10:02;;;;;;;11.82;7.28;;;;;;;7.20;68.16;95104.56;4165775;28;20099;-58
2022/12/06 06:12:04;;;;;;;13.02;7.57;;;;;;;7.22;67.92;95102.66;4158851;28;20072;-57
2022/12/06 06:14:13;;;;;;;11.50;6.57;;;;;;;7.22;68.08;95094.84;4172348;28;20057;-54
2022/12/06 06:16:15;;;;;;;11.48;7.13;;;;;;;7.20;68.63;95104.56;4159666;28;20045;-54
2022/12/06 06:18:17;;;;;;;15.95;7.55;;;;;;;7.21;68.53;95101.03;4159977;28;20049;-55
2022/12/06 06:20:19;;;;;;;13.50;7.50;;;;;;;7.24;68.31;95100.75;4160649;28;20089;-54
2022/12/06 06:22:22;;;;;;;12.23;8.20;;;;;;;7.24;67.85;95110.38;4160087;28;20136;-55
2022/12/06 06:24:23;;;;;;;12.85;7.45;;;;;;;7.28;68.41;95111.78;4160507;28;20521;-57
2022/12/06 06:26:25;;;;;;;14.15;7.85;;;;;;;7.27;67.81;95118.78;4150918;28;20100;-56
2022/12/06 06:28:26;;;;;;;11.63;7.57;;;;;;;7.28;68.30;95115.19;4142071;28;20046;-54
2022/12/06 06:30:28;;;;;;;17.30;7.40;;;;;;;7.31;67.77;95112.34;4171950;28;20053;-56
2022/12/06 06:32:30;;;;;;;12.65;6.78;;;;;;;7.29;67.69;95122.06;4160023;28;20111;-54
2022/12/06 06:34:31;;;;;;;10.48;7.10;;;;;;;7.28;67.68;95117.81;4151203;28;20435;-54
2022/12/06 06:36:33;;;;;;;14.50;7.93;;;;;;;7.22;68.00;95118.31;4156377;28;20049;-56
2022/12/06 06:38:35;;;;;;;15.68;8.27;;;;;;;7.21;68.37;95111.47;4152829;28;20429;-54
2022/12/06 06:40:36;;;;;;;15.60;7.68;;;;;;;7.18;68.04;95107.34;4160552;28;20514;-58
2022/12/06 06:42:38;;;;;;;19.00;9.50;;;;;;;7.22;68.10;95100.06;4160262;28;20413;-58
2022/12/06 06:44:40;;;;;;;31.35;13.32;;;;;;;7.22;67.92;95107.88;4147565;28;20061;-54
2022/12/06 06:46:41;;;;;;;40.78;15.90;;;;;;;7.22;68.24;95107.88;4147699;28;20072;-52
2022/12/06 06:48:43;;;;;;;19.70;10.68;;;;;;;7.24;67.99;95102.56;4167777;28;20126;-56
2022/12/06 06:50:45;;;;;;;17.17;8.93;;;;;;;7.27;67.78;95097.91;4177784;28;20049;-49
2022/12/06 06:52:47;;;;;;;14.95;7.68;;;;;;;7.29;67.73;95105.59;4159507;28;20128;-55
2022/12/06 06:54:48;;;;;;;17.08;7.65;;;;;;;7.32;67.87;95097.53;4163089;28;20080;-56
2022/12/06 06:56:50;;;;;;;12.73;7.20;;;;;;;7.34;67.73;95096.44;4163545;28;20576;-59
2022/12/06 06:58:52;;;;;;;14.70;7.50;;;;;;;7.36;68.35;95089.31;4171086;28;20044;-58
2022/12/06 07:01:01;;;;;;;16.60;8.55;;;;;;;7.42;68.13;95100.16;4179385;28;20059;-56
2022/12/06 07:03:03;;;;;;;15.38;7.60;;;;;;;7.44;67.76;95098.25;4176803;28;20057;-55
2022/12/06 07:05:05;;;;;;;18.23;7.82;;;;;;;7.44;67.60;95088.66;4165326;28;20081;-57
2022/12/06 07:07:06;;;;;;;13.52;7.75;;;;;;;7.50;67.79;95095.13;4158144;28;20128;-54
2022/12/06 07:09:08;;;;;;;14.57;7.75;;;;;;;7.53;67.82;95102.72;4164582;28;20052;-55
2022/12/06 07:11:11;;;;;;;14.98;7.05;;;;;;;7.53;67.10;95102.72;4164448;28;20470;-55
2022/12/06 07:13:12;;;;;;;21.02;7.47;;;;;;;7.52;66.67;95090.63;4151060;28;20050;-58
2022/12/06 07:15:14;;;;;;;15.10;7.53;;;;;;;7.51;67.46;95094.19;4149345;28;20092;-58
2022/12/06 07:17:16;;;;;;;15.00;7.00;;;;;;;7.56;67.72;95097.22;4155262;28;20054;-55
2022/12/06 07:19:19;;;;;;;13.37;6.50;;;;;;;7.57;66.83;95096.25;4163186;28;20050;-53
2022/12/06 07:21:23;;;;;;;12.88;7.45;;;;;;;7.58;67.34;95092.72;4158256;28;20050;-51
2022/12/06 07:23:25;;;;;;;14.80;7.53;;;;;;;7.55;68.08;95101.63;4155300;28;20081;-55
2022/12/06 07:25:27;;;;;;;12.65;6.95;;;;;;;7.56;68.18;95095.44;4167431;28;20045;-57
2022/12/06 07:27:33;;;;;;;19.08;7.70;;;;;;;7.57;67.67;95104.06;4161464;28;20045;-58
2022/12/06 07:29:35;;;;;;;12.02;7.72;;;;;;;7.57;67.80;95097.09;4151423;28;20470;-56
2022/12/06 07:31:39;;;;;;;12.77;6.85;;;;;;;7.61;67.10;95096.81;4162094;28;20473;-55
2022/12/06 07:33:41;;;;;;;;;;;;;;;7.63;67.23;95094.91;4165973;28;20040;-53
2022/12/06 07:35:43;;;;;;;13.32;7.80;;;;;;;7.57;66.62;95091.88;4160749;28;19979;-56
2022/12/06 07:38:04;;;;;;;18.17;9.50;;;;;;;7.56;67.23;95081.59;4157954;28;20131;-57
2022/12/06 07:40:07;;;;;;;14.48;8.85;;;;;;;7.62;67.21;95093.28;4160826;28;20439;-58
2022/12/06 07:46:50;;;;;;;17.85;8.52;;;;;;;7.77;66.34;95089.34;4152911;28;20111;-63
2022/12/06 07:48:51;;;;;;;21.00;8.90;;;;;;;7.75;66.50;95092.09;4153206;28;20059;-58
2022/12/06 07:50:53;;;;;;;15.82;7.90;;;;;;;7.75;66.70;95083.44;4153465;28;20443;-55
2022/12/06 07:52:54;;;;;;;16.30;8.75;;;;;;;7.77;66.31;95091.97;4174029;28;20065;-55
2022/12/06 07:54:56;;;;;;;16.17;8.40;;;;;;;7.85;66.95;95093.88;4154490;28;20042;-57
2022/12/06 07:56:58;;;;;;;16.52;8.23;;;;;;;7.86;66.30;95091.16;4151765;28;20108;-58
2022/12/06 07:59:00;;;;;;;19.02;8.52;;;;;;;7.88;65.87;95096.25;4171017;28;20405;-57
2022/12/06 08:01:03;;;;;;;14.40;6.55;;;;;;;7.87;65.99;95098.03;4177814;28;20060;-55
2022/12/06 08:03:05;;;;;;;14.30;7.05;;;;;;;7.88;65.85;95096.25;4172730;28;20067;-55
2022/12/06 08:05:07;;;;;;;17.10;7.43;;;;;;;7.96;65.95;95094.63;4166969;28;20063;-55
2022/12/06 08:07:09;;;;;;;19.95;7.38;;;;;;;8.04;66.22;95093.13;4178873;28;20531;-57
2022/12/06 08:09:11;;;;;;;13.80;7.00;;;;;;;8.08;66.57;95092.72;4178518;28;20053;-57
2022/12/06 08:11:12;;;;;;;13.32;7.47;;;;;;;8.08;65.21;95099.72;4168906;28;20053;-58
2022/12/06 08:13:14;;;;;;;14.13;7.28;;;;;;;8.07;65.32;95103.31;4172123;28;20081;-54
2022/12/06 08:15:16;;;;;;;19.52;7.75;;;;;;;8.06;65.09;95094.63;4161428;28;20510;-52
2022/12/06 08:17:17;;;;;;;12.35;6.28;;;;;;;8.05;64.90;95089.56;4161779;28;20053;-55
2022/12/06 08:19:19;;;;;;;11.45;6.60;;;;;;;7.98;65.19;95097.94;4164294;28;20140;-56
2022/12/06 08:21:21;;;;;;;12.40;6.57;;;;;;;7.97;65.68;95098.88;4165988;28;20046;-53
2022/12/06 08:23:22;;;;;;;11.20;7.18;;;;;;;7.95;65.26;95089.53;4154539;28;20053;-56
2022/12/06 08:25:31;;;;;;;11.32;6.40;;;;;;;7.96;65.62;95091.19;4161677;28;20080;-57
2022/12/06 08:27:32;;;;;;;17.40;9.73;;;;;;;7.97;65.63;95085.81;4165578;28;20146;-56
2022/12/06 08:29:34;;;;;;;12.88;7.15;;;;;;;7.98;66.59;95084.06;4176660;28;20045;-56
2022/12/06 08:31:36;;;;;;;16.52;6.93;;;;;;;7.96;65.43;95078.16;4176393;28;20387;-56
2022/12/06 08:33:38;;;;;;;11.18;6.88;;;;;;;7.95;65.60;95084.31;4174925;28;20457;-56
2022/12/06 08:35:39;;;;;;;13.00;7.53;;;;;;;7.97;66.05;95079.78;4177509;28;20049;-56
2022/12/06 08:37:41;;;;;;;12.90;6.95;;;;;;;8.03;65.41;95081.88;4171548;28;20458;-59
2022/12/06 08:39:43;;;;;;;12.45;6.28;;;;;;;8.06;66.06;95080.78;4168087;28;20458;-56
2022/12/06 08:41:54;;;;;;;10.90;7.07;;;;;;;8.03;65.89;95081.88;4162501;28;20087;-56
2022/12/06 08:43:57;;;;;;;14.35;6.03;;;;;;;7.93;65.96;95087.06;4175478;28;20036;-54
2022/12/06 08:45:59;;;;;;;15.63;7.07;;;;;;;7.90;65.69;95086.50;4166336;28;20478;-56
2022/12/06 08:48:01;;;;;;;13.40;7.75;;;;;;;7.95;66.30;95086.94;4173564;28;20225;-52
2022/12/06 08:50:03;;;;;;;15.82;7.70;;;;;;;7.97;66.72;95082.41;4150389;28;20052;-55
2022/12/06 08:52:04;;;;;;;13.38;7.70;;;;;;;8.00;66.16;95084.72;4177948;28;20107;-56
2022/12/06 08:54:07;;;;;;;11.77;7.55;;;;;;;8.05;66.05;95079.13;4163886;28;20053;-51
2022/12/06 08:56:09;;;;;;;12.53;7.13;;;;;;;8.10;65.98;95082.97;4156025;28;20494;-53
2022/12/06 08:58:11;;;;;;;11.32;6.90;;;;;;;8.05;65.34;95077.34;4156560;28;20128;-56
2022/12/06 09:00:13;;;;;;;18.52;8.27;;;;;;;8.08;65.89;95084.88;4170140;28;20199;-49
2022/12/06 09:02:15;;;;;;;15.32;7.72;;;;;;;8.12;65.72;95085.47;4150556;28;20057;-52
2022/12/06 09:04:17;;;;;;;14.27;8.40;;;;;;;7.99;65.94;95080.47;4160351;28;20049;-53
2022/12/06 09:06:20;;;;;;;18.00;8.82;;;;;;;7.99;65.80;95075.25;4175006;28;20053;-52
2022/12/06 09:08:21;;;;;;;17.95;7.88;;;;;;;7.90;65.71;95073.47;4177432;28;20102;-56
2022/12/06 09:10:23;;;;;;;20.48;9.23;;;;;;;7.82;66.86;95061.06;4175148;28;20049;-55
2022/12/06 09:12:25;;;;;;;12.82;8.07;;;;;;;7.88;66.57;95055.34;4159347;28;20072;-53
2022/12/06 09:14:27;;;;;;;18.75;8.30;;;;;;;7.95;66.43;95048.59;4171937;28;20053;-50
2022/12/06 09:16:29;;;;;;;16.05;8.50;;;;;;;8.08;66.86;95045.75;4166188;28;20049;-52
2022/12/06 09:18:30;;;;;;;14.98;8.45;;;;;;;8.24;66.95;95044.38;4177049;28;20487;-52
2022/12/06 09:20:32;;;;;;;19.00;8.35;;;;;;;8.33;65.73;95040.97;4177306;28;20071;-52
2022/12/06 09:22:34;;;;;;;18.10;8.30;;;;;;;8.42;65.95;95034.97;4176595;28;20044;-52
2022/12/06 09:24:36;;;;;;;14.23;8.50;;;;;;;8.47;65.29;95035.38;4170758;28;20120;-51
2022/12/06 09:26:37;;;;;;;15.88;8.45;;;;;;;8.53;65.19;95037.44;4170660;28;20052;-52
2022/12/06 09:28:40;;;;;;;18.52;8.57;;;;;;;8.51;64.93;95031.50;4175368;28;20417;-51
2022/12/06 09:30:42;;;;;;;21.03;9.57;;;;;;;8.50;65.22;95023.84;4160405;28;20076;-54
2022/12/06 09:32:44;;;;;;;16.10;8.38;;;;;;;8.50;65.99;95014.22;4153341;28;20283;-49
2022/12/06 09:34:46;;;;;;;16.02;9.25;;;;;;;8.54;64.86;95005.16;4154129;28;20080;-58
2022/12/06 09:36:55;;;;;;;20.20;8.18;;;;;;;8.59;65.05;94995.09;4160614;28;20076;-57
2022/12/06 09:39:25;;;;;;;16.77;8.98;;;;;;;8.58;64.77;94992.63;4157276;28;20118;-56
2022/12/06 09:41:44;;;;;;;16.27;8.95;;;;;;;8.58;64.98;94985.63;4151050;28;20521;-56
2022/12/06 09:44:22;;;;;;;15.27;8.65;;;;;;;8.64;64.93;94980.78;4154388;28;20044;-56
2022/12/06 09:46:49;;;;;;;19.10;8.60;;;;;;;8.68;64.65;94976.94;4146719;28;20120;-54
2022/12/06 09:49:07;;;;;;;16.13;9.57;;;;;;;8.67;64.47;94985.72;4143119;28;20586;-57
2022/12/06 09:51:42;;;;;;;18.40;9.30;;;;;;;8.68;64.55;94984.78;4156530;28;20113;-58
2022/12/06 09:53:44;;;;;;;16.90;9.35;;;;;;;8.72;64.20;94988.75;4164961;28;20084;-57
2022/12/06 09:56:05;;;;;;;22.30;8.10;;;;;;;8.67;63.89;94988.34;4171340;28;20087;-59
2022/12/06 09:58:28;;;;;;;15.30;8.45;;;;;;;8.63;63.83;94979.97;4157796;28;20096;-58
2022/12/06 10:00:48;;;;;;;14.07;7.93;;;;;;;8.67;64.32;94975.28;4158880;28;20076;-59
2022/12/06 10:03:38;;;;;;;14.85;8.80;;;;;;;8.68;64.11;94976.94;4146176;28;20358;-56
2022/12/06 10:05:54;;;;;;;16.17;7.88;;;;;;;8.71;64.74;94968.81;4155160;28;20083;-54
2022/12/06 10:08:11;;;;;;;24.17;9.48;;;;;;;8.72;64.07;94967.88;4158823;28;20127;-54
2022/12/06 10:10:31;;;;;;;18.10;9.18;;;;;;;8.75;64.07;94957.13;4142902;28;20510;-56
2022/12/06 10:12:36;;;;;;;19.58;8.57;;;;;;;8.81;64.14;94956.56;4142609;28;20050;-56